sensor_id;sensor_type;location;lat;lon;timestamp;P1;durP1;ratioP1;P2;durP2;ratioP2
67721;SDS011;58309;45.292;11.820;2024-03-17T00:00:55;104.05;;;47.88;;
67721;SDS011;58309;45.292;11.820;2024-03-17T00:03:24;105.47;;;48.33;;
67721;SDS011;58309;45.292;11.820;2024-03-17T00:05:54;104.05;;;49.33;;
67721;SDS011;58309;45.292;11.820;2024-03-17T00:08:22;94.45;;;46.33;;
67721;SDS011;58309;45.292;11.820;2024-03-17T00:10:49;99.80;;;46.70;;
67721;SDS011;58309;45.292;11.820;2024-03-17T00:13:18;104.90;;;49.42;;
67721;SDS011;58309;45.292;11.820;2024-03-17T00:15:44;99.88;;;47.85;;
67721;SDS011;58309;45.292;11.820;2024-03-17T00:18:10;115.20;;;52.97;;
67721;SDS011;58309;45.292;11.820;2024-03-17T00:20:36;129.18;;;55.42;;
67721;SDS011;58309;45.292;11.820;2024-03-17T00:23:03;135.55;;;60.22;;
67721;SDS011;58309;45.292;11.820;2024-03-17T00:25:31;143.20;;;61.00;;
67721;SDS011;58309;45.292;11.820;2024-03-17T00:27:58;123.50;;;58.28;;
67721;SDS011;58309;45.292;11.820;2024-03-17T00:30:23;128.30;;;59.33;;
67721;SDS011;58309;45.292;11.820;2024-03-17T00:32:48;132.95;;;62.67;;
67721;SDS011;58309;45.292;11.820;2024-03-17T00:35:14;127.75;;;58.40;;
67721;SDS011;58309;45.292;11.820;2024-03-17T00:37:45;118.30;;;57.05;;
67721;SDS011;58309;45.292;11.820;2024-03-17T00:40:14;126.93;;;60.35;;
67721;SDS011;58309;45.292;11.820;2024-03-17T00:42:41;133.25;;;61.28;;
67721;SDS011;58309;45.292;11.820;2024-03-17T00:45:07;137.77;;;63.30;;
67721;SDS011;58309;45.292;11.820;2024-03-17T00:47:34;147.20;;;65.50;;
67721;SDS011;58309;45.292;11.820;2024-03-17T00:49:59;155.10;;;67.72;;
67721;SDS011;58309;45.292;11.820;2024-03-17T00:52:25;153.38;;;67.72;;
67721;SDS011;58309;45.292;11.820;2024-03-17T00:54:50;153.95;;;67.50;;
67721;SDS011;58309;45.292;11.820;2024-03-17T00:57:16;151.75;;;68.03;;
67721;SDS011;58309;45.292;11.820;2024-03-17T00:59:41;157.98;;;67.82;;
67721;SDS011;58309;45.292;11.820;2024-03-17T01:02:09;141.25;;;61.30;;
67721;SDS011;58309;45.292;11.820;2024-03-17T01:04:37;147.65;;;65.65;;
67721;SDS011;58309;45.292;11.820;2024-03-17T01:07:02;163.60;;;70.43;;
67721;SDS011;58309;45.292;11.820;2024-03-17T01:09:29;152.68;;;69.90;;
67721;SDS011;58309;45.292;11.820;2024-03-17T01:11:54;162.55;;;70.63;;
67721;SDS011;58309;45.292;11.820;2024-03-17T01:14:20;163.30;;;69.97;;
67721;SDS011;58309;45.292;11.820;2024-03-17T01:16:45;157.27;;;67.60;;
67721;SDS011;58309;45.292;11.820;2024-03-17T01:19:10;159.60;;;71.25;;
67721;SDS011;58309;45.292;11.820;2024-03-17T01:21:36;154.73;;;70.05;;
67721;SDS011;58309;45.292;11.820;2024-03-17T01:24:02;125.82;;;58.90;;
67721;SDS011;58309;45.292;11.820;2024-03-17T01:26:28;120.70;;;57.65;;
67721;SDS011;58309;45.292;11.820;2024-03-17T01:28:53;116.25;;;54.53;;
67721;SDS011;58309;45.292;11.820;2024-03-17T01:31:18;121.90;;;58.42;;
67721;SDS011;58309;45.292;11.820;2024-03-17T01:33:44;138.93;;;65.75;;
67721;SDS011;58309;45.292;11.820;2024-03-17T01:36:11;152.20;;;66.50;;
67721;SDS011;58309;45.292;11.820;2024-03-17T01:38:37;139.93;;;64.05;;
67721;SDS011;58309;45.292;11.820;2024-03-17T01:41:03;134.25;;;62.60;;
67721;SDS011;58309;45.292;11.820;2024-03-17T01:43:29;145.65;;;67.38;;
67721;SDS011;58309;45.292;11.820;2024-03-17T01:45:55;143.80;;;66.30;;
67721;SDS011;58309;45.292;11.820;2024-03-17T01:48:23;160.93;;;70.40;;
67721;SDS011;58309;45.292;11.820;2024-03-17T01:50:49;153.55;;;70.05;;
67721;SDS011;58309;45.292;11.820;2024-03-17T01:53:18;154.75;;;73.65;;
67721;SDS011;58309;45.292;11.820;2024-03-17T01:55:44;173.98;;;74.10;;
67721;SDS011;58309;45.292;11.820;2024-03-17T01:58:12;175.15;;;79.50;;
67721;SDS011;58309;45.292;11.820;2024-03-17T02:00:38;190.07;;;80.03;;
67721;SDS011;58309;45.292;11.820;2024-03-17T02:03:07;190.68;;;81.65;;
67721;SDS011;58309;45.292;11.820;2024-03-17T02:05:34;183.30;;;78.75;;
67721;SDS011;58309;45.292;11.820;2024-03-17T02:08:03;202.07;;;82.18;;
67721;SDS011;58309;45.292;11.820;2024-03-17T02:10:29;190.95;;;79.72;;
67721;SDS011;58309;45.292;11.820;2024-03-17T02:12:55;190.95;;;78.38;;
67721;SDS011;58309;45.292;11.820;2024-03-17T02:15:20;164.60;;;72.15;;
67721;SDS011;58309;45.292;11.820;2024-03-17T02:17:46;169.73;;;74.72;;
67721;SDS011;58309;45.292;11.820;2024-03-17T02:20:11;156.60;;;67.32;;
67721;SDS011;58309;45.292;11.820;2024-03-17T02:22:38;162.88;;;71.55;;
67721;SDS011;58309;45.292;11.820;2024-03-17T02:25:04;175.48;;;72.07;;
67721;SDS011;58309;45.292;11.820;2024-03-17T02:27:33;162.63;;;66.72;;
67721;SDS011;58309;45.292;11.820;2024-03-17T02:29:58;152.00;;;68.50;;
67721;SDS011;58309;45.292;11.820;2024-03-17T02:32:24;152.93;;;67.60;;
67721;SDS011;58309;45.292;11.820;2024-03-17T02:34:52;167.38;;;71.93;;
67721;SDS011;58309;45.292;11.820;2024-03-17T02:37:17;180.85;;;73.60;;
67721;SDS011;58309;45.292;11.820;2024-03-17T02:39:42;180.40;;;77.38;;
67721;SDS011;58309;45.292;11.820;2024-03-17T02:42:09;176.07;;;74.00;;
67721;SDS011;58309;45.292;11.820;2024-03-17T02:44:36;188.00;;;73.32;;
67721;SDS011;58309;45.292;11.820;2024-03-17T02:47:03;181.63;;;73.43;;
67721;SDS011;58309;45.292;11.820;2024-03-17T02:49:30;194.40;;;77.18;;
67721;SDS011;58309;45.292;11.820;2024-03-17T02:52:04;197.43;;;78.95;;
67721;SDS011;58309;45.292;11.820;2024-03-17T02:54:31;183.90;;;76.13;;
67721;SDS011;58309;45.292;11.820;2024-03-17T02:56:57;190.40;;;75.03;;
67721;SDS011;58309;45.292;11.820;2024-03-17T02:59:23;183.90;;;72.72;;
67721;SDS011;58309;45.292;11.820;2024-03-17T03:01:49;193.32;;;80.05;;
67721;SDS011;58309;45.292;11.820;2024-03-17T03:04:15;201.32;;;86.30;;
67721;SDS011;58309;45.292;11.820;2024-03-17T03:06:41;217.20;;;86.80;;
67721;SDS011;58309;45.292;11.820;2024-03-17T03:09:06;211.68;;;87.45;;
67721;SDS011;58309;45.292;11.820;2024-03-17T03:11:38;232.15;;;92.55;;
67721;SDS011;58309;45.292;11.820;2024-03-17T03:14:04;230.68;;;93.35;;
67721;SDS011;58309;45.292;11.820;2024-03-17T03:16:30;225.57;;;90.20;;
67721;SDS011;58309;45.292;11.820;2024-03-17T03:18:55;220.40;;;87.95;;
67721;SDS011;58309;45.292;11.820;2024-03-17T03:21:20;199.68;;;87.72;;
67721;SDS011;58309;45.292;11.820;2024-03-17T03:23:46;197.57;;;82.97;;
67721;SDS011;58309;45.292;11.820;2024-03-17T03:26:12;191.18;;;80.93;;
67721;SDS011;58309;45.292;11.820;2024-03-17T03:28:38;194.88;;;82.50;;
67721;SDS011;58309;45.292;11.820;2024-03-17T03:31:04;203.75;;;85.32;;
67721;SDS011;58309;45.292;11.820;2024-03-17T03:33:30;200.90;;;85.65;;
67721;SDS011;58309;45.292;11.820;2024-03-17T03:35:55;196.88;;;82.97;;
67721;SDS011;58309;45.292;11.820;2024-03-17T03:38:21;178.90;;;78.88;;
67721;SDS011;58309;45.292;11.820;2024-03-17T03:40:47;191.75;;;80.20;;
67721;SDS011;58309;45.292;11.820;2024-03-17T03:43:13;181.27;;;78.70;;
67721;SDS011;58309;45.292;11.820;2024-03-17T03:45:39;176.77;;;79.70;;
67721;SDS011;58309;45.292;11.820;2024-03-17T03:48:06;186.35;;;78.53;;
67721;SDS011;58309;45.292;11.820;2024-03-17T03:50:33;170.80;;;76.55;;
67721;SDS011;58309;45.292;11.820;2024-03-17T03:53:00;164.82;;;73.30;;
67721;SDS011;58309;45.292;11.820;2024-03-17T03:55:25;156.93;;;69.97;;
67721;SDS011;58309;45.292;11.820;2024-03-17T03:57:51;159.43;;;70.60;;
67721;SDS011;58309;45.292;11.820;2024-03-17T04:00:19;157.23;;;70.18;;
67721;SDS011;58309;45.292;11.820;2024-03-17T04:02:49;153.18;;;67.60;;
67721;SDS011;58309;45.292;11.820;2024-03-17T04:05:15;158.35;;;65.85;;
67721;SDS011;58309;45.292;11.820;2024-03-17T04:07:41;150.93;;;65.38;;
67721;SDS011;58309;45.292;11.820;2024-03-17T04:10:08;173.68;;;70.25;;
67721;SDS011;58309;45.292;11.820;2024-03-17T04:12:35;203.68;;;79.30;;
67721;SDS011;58309;45.292;11.820;2024-03-17T04:15:00;227.60;;;81.85;;
67721;SDS011;58309;45.292;11.820;2024-03-17T04:17:26;238.43;;;85.03;;
67721;SDS011;58309;45.292;11.820;2024-03-17T04:19:54;256.27;;;85.47;;
67721;SDS011;58309;45.292;11.820;2024-03-17T04:22:20;261.83;;;87.88;;
67721;SDS011;58309;45.292;11.820;2024-03-17T04:24:47;257.58;;;87.57;;
67721;SDS011;58309;45.292;11.820;2024-03-17T04:27:18;282.60;;;90.15;;
67721;SDS011;58309;45.292;11.820;2024-03-17T04:29:46;288.48;;;89.55;;
67721;SDS011;58309;45.292;11.820;2024-03-17T04:32:13;296.42;;;88.93;;
67721;SDS011;58309;45.292;11.820;2024-03-17T04:34:39;316.20;;;92.60;;
67721;SDS011;58309;45.292;11.820;2024-03-17T04:37:04;308.42;;;90.45;;
67721;SDS011;58309;45.292;11.820;2024-03-17T04:39:30;284.95;;;89.55;;
67721;SDS011;58309;45.292;11.820;2024-03-17T04:41:56;275.58;;;85.80;;
67721;SDS011;58309;45.292;11.820;2024-03-17T04:44:22;272.05;;;85.38;;
67721;SDS011;58309;45.292;11.820;2024-03-17T04:46:47;258.25;;;80.72;;
67721;SDS011;58309;45.292;11.820;2024-03-17T04:49:13;252.20;;;81.35;;
67721;SDS011;58309;45.292;11.820;2024-03-17T04:51:39;237.52;;;82.28;;
67721;SDS011;58309;45.292;11.820;2024-03-17T04:54:04;227.02;;;75.90;;
67721;SDS011;58309;45.292;11.820;2024-03-17T04:56:32;250.13;;;82.30;;
67721;SDS011;58309;45.292;11.820;2024-03-17T04:58:57;245.15;;;81.90;;
67721;SDS011;58309;45.292;11.820;2024-03-17T05:01:23;273.70;;;84.90;;
67721;SDS011;58309;45.292;11.820;2024-03-17T05:03:52;265.23;;;84.68;;
67721;SDS011;58309;45.292;11.820;2024-03-17T05:06:18;271.27;;;88.10;;
67721;SDS011;58309;45.292;11.820;2024-03-17T05:08:43;291.17;;;90.35;;
67721;SDS011;58309;45.292;11.820;2024-03-17T05:11:09;275.83;;;84.30;;
67721;SDS011;58309;45.292;11.820;2024-03-17T05:13:35;273.00;;;84.30;;
67721;SDS011;58309;45.292;11.820;2024-03-17T05:16:03;281.77;;;86.03;;
67721;SDS011;58309;45.292;11.820;2024-03-17T05:18:29;292.70;;;89.18;;
67721;SDS011;58309;45.292;11.820;2024-03-17T05:21:04;289.25;;;89.45;;
67721;SDS011;58309;45.292;11.820;2024-03-17T05:23:32;289.17;;;88.65;;
67721;SDS011;58309;45.292;11.820;2024-03-17T05:26:02;297.98;;;89.88;;
67721;SDS011;58309;45.292;11.820;2024-03-17T05:28:29;288.15;;;90.22;;
67721;SDS011;58309;45.292;11.820;2024-03-17T05:30:56;289.35;;;89.32;;
67721;SDS011;58309;45.292;11.820;2024-03-17T05:33:22;316.10;;;99.45;;
67721;SDS011;58309;45.292;11.820;2024-03-17T05:35:58;344.88;;;108.22;;
67721;SDS011;58309;45.292;11.820;2024-03-17T05:38:28;357.55;;;113.53;;
67721;SDS011;58309;45.292;11.820;2024-03-17T05:41:08;358.58;;;115.32;;
67721;SDS011;58309;45.292;11.820;2024-03-17T05:43:35;337.73;;;108.07;;
67721;SDS011;58309;45.292;11.820;2024-03-17T05:46:05;320.00;;;107.78;;
67721;SDS011;58309;45.292;11.820;2024-03-17T05:48:36;315.73;;;106.30;;
67721;SDS011;58309;45.292;11.820;2024-03-17T05:51:05;307.13;;;105.97;;
67721;SDS011;58309;45.292;11.820;2024-03-17T05:53:35;300.63;;;102.82;;
67721;SDS011;58309;45.292;11.820;2024-03-17T05:56:02;296.00;;;100.35;;
67721;SDS011;58309;45.292;11.820;2024-03-17T05:58:28;298.08;;;99.53;;
67721;SDS011;58309;45.292;11.820;2024-03-17T06:00:54;288.73;;;99.60;;
67721;SDS011;58309;45.292;11.820;2024-03-17T06:03:20;312.90;;;106.47;;
67721;SDS011;58309;45.292;11.820;2024-03-17T06:05:46;299.65;;;106.78;;
67721;SDS011;58309;45.292;11.820;2024-03-17T06:08:12;296.52;;;105.95;;
67721;SDS011;58309;45.292;11.820;2024-03-17T06:10:42;291.05;;;101.78;;
67721;SDS011;58309;45.292;11.820;2024-03-17T06:13:14;287.65;;;104.97;;
67721;SDS011;58309;45.292;11.820;2024-03-17T06:15:43;297.85;;;112.43;;
67721;SDS011;58309;45.292;11.820;2024-03-17T06:18:11;302.58;;;111.30;;
67721;SDS011;58309;45.292;11.820;2024-03-17T06:20:40;285.90;;;105.97;;
67721;SDS011;58309;45.292;11.820;2024-03-17T06:23:12;268.20;;;103.80;;
67721;SDS011;58309;45.292;11.820;2024-03-17T06:25:39;286.63;;;105.35;;
67721;SDS011;58309;45.292;11.820;2024-03-17T06:28:08;269.67;;;102.25;;
67721;SDS011;58309;45.292;11.820;2024-03-17T06:30:35;251.30;;;100.22;;
67721;SDS011;58309;45.292;11.820;2024-03-17T06:33:01;248.23;;;96.68;;
67721;SDS011;58309;45.292;11.820;2024-03-17T06:35:27;236.63;;;93.95;;
67721;SDS011;58309;45.292;11.820;2024-03-17T06:37:58;244.63;;;92.75;;
67721;SDS011;58309;45.292;11.820;2024-03-17T06:40:24;233.77;;;93.18;;
67721;SDS011;58309;45.292;11.820;2024-03-17T06:42:50;238.07;;;91.90;;
67721;SDS011;58309;45.292;11.820;2024-03-17T06:45:15;220.40;;;86.38;;
67721;SDS011;58309;45.292;11.820;2024-03-17T06:47:42;225.18;;;90.40;;
67721;SDS011;58309;45.292;11.820;2024-03-17T06:50:09;220.18;;;85.82;;
67721;SDS011;58309;45.292;11.820;2024-03-17T06:52:35;212.02;;;89.38;;
67721;SDS011;58309;45.292;11.820;2024-03-17T06:55:01;217.45;;;89.35;;
67721;SDS011;58309;45.292;11.820;2024-03-17T06:57:26;198.55;;;87.25;;
67721;SDS011;58309;45.292;11.820;2024-03-17T06:59:52;203.63;;;90.75;;
67721;SDS011;58309;45.292;11.820;2024-03-17T07:02:18;193.68;;;89.90;;
67721;SDS011;58309;45.292;11.820;2024-03-17T07:04:44;185.57;;;87.40;;
67721;SDS011;58309;45.292;11.820;2024-03-17T07:07:13;174.20;;;89.15;;
67721;SDS011;58309;45.292;11.820;2024-03-17T07:09:39;167.43;;;88.25;;
67721;SDS011;58309;45.292;11.820;2024-03-17T07:12:09;150.80;;;85.45;;
67721;SDS011;58309;45.292;11.820;2024-03-17T07:14:38;164.48;;;90.32;;
67721;SDS011;58309;45.292;11.820;2024-03-17T07:17:03;157.43;;;91.13;;
67721;SDS011;58309;45.292;11.820;2024-03-17T07:19:29;171.98;;;92.25;;
67721;SDS011;58309;45.292;11.820;2024-03-17T07:21:56;164.10;;;93.05;;
67721;SDS011;58309;45.292;11.820;2024-03-17T07:24:24;157.77;;;90.90;;
67721;SDS011;58309;45.292;11.820;2024-03-17T07:26:50;164.52;;;93.47;;
67721;SDS011;58309;45.292;11.820;2024-03-17T07:29:16;157.57;;;94.75;;
67721;SDS011;58309;45.292;11.820;2024-03-17T07:31:41;158.80;;;92.57;;
67721;SDS011;58309;45.292;11.820;2024-03-17T07:34:07;157.68;;;90.85;;
67721;SDS011;58309;45.292;11.820;2024-03-17T07:36:32;173.10;;;95.50;;
67721;SDS011;58309;45.292;11.820;2024-03-17T07:38:58;156.38;;;92.07;;
67721;SDS011;58309;45.292;11.820;2024-03-17T07:41:23;156.68;;;89.88;;
67721;SDS011;58309;45.292;11.820;2024-03-17T07:43:51;151.65;;;86.70;;
67721;SDS011;58309;45.292;11.820;2024-03-17T07:46:17;156.38;;;87.53;;
67721;SDS011;58309;45.292;11.820;2024-03-17T07:48:43;143.18;;;84.93;;
67721;SDS011;58309;45.292;11.820;2024-03-17T07:51:13;138.43;;;82.38;;
67721;SDS011;58309;45.292;11.820;2024-03-17T07:53:40;133.93;;;80.10;;
67721;SDS011;58309;45.292;11.820;2024-03-17T07:56:07;128.65;;;78.15;;
67721;SDS011;58309;45.292;11.820;2024-03-17T07:58:34;130.20;;;79.18;;
67721;SDS011;58309;45.292;11.820;2024-03-17T08:01:01;126.82;;;76.65;;
67721;SDS011;58309;45.292;11.820;2024-03-17T08:03:28;124.30;;;74.35;;
67721;SDS011;58309;45.292;11.820;2024-03-17T08:05:54;116.30;;;73.35;;
67721;SDS011;58309;45.292;11.820;2024-03-17T08:08:20;113.57;;;71.07;;
67721;SDS011;58309;45.292;11.820;2024-03-17T08:10:46;113.03;;;69.35;;
67721;SDS011;58309;45.292;11.820;2024-03-17T08:13:13;106.03;;;66.85;;
67721;SDS011;58309;45.292;11.820;2024-03-17T08:15:41;104.20;;;62.15;;
67721;SDS011;58309;45.292;11.820;2024-03-17T08:18:08;104.20;;;63.88;;
67721;SDS011;58309;45.292;11.820;2024-03-17T08:20:37;101.00;;;60.03;;
67721;SDS011;58309;45.292;11.820;2024-03-17T08:23:04;98.60;;;60.20;;
67721;SDS011;58309;45.292;11.820;2024-03-17T08:25:30;102.85;;;60.42;;
67721;SDS011;58309;45.292;11.820;2024-03-17T08:27:56;100.65;;;61.90;;
67721;SDS011;58309;45.292;11.820;2024-03-17T08:30:22;95.25;;;60.38;;
67721;SDS011;58309;45.292;11.820;2024-03-17T08:32:47;95.10;;;59.97;;
67721;SDS011;58309;45.292;11.820;2024-03-17T08:35:13;98.38;;;62.65;;
67721;SDS011;58309;45.292;11.820;2024-03-17T08:37:38;97.47;;;59.22;;
67721;SDS011;58309;45.292;11.820;2024-03-17T08:40:04;96.00;;;57.63;;
67721;SDS011;58309;45.292;11.820;2024-03-17T08:42:31;97.97;;;54.45;;
67721;SDS011;58309;45.292;11.820;2024-03-17T08:44:57;84.43;;;56.90;;
67721;SDS011;58309;45.292;11.820;2024-03-17T08:47:23;88.50;;;57.33;;
67721;SDS011;58309;45.292;11.820;2024-03-17T08:49:51;91.55;;;57.28;;
67721;SDS011;58309;45.292;11.820;2024-03-17T08:52:17;86.05;;;54.97;;
67721;SDS011;58309;45.292;11.820;2024-03-17T08:54:45;82.65;;;53.58;;
67721;SDS011;58309;45.292;11.820;2024-03-17T08:57:12;81.13;;;52.03;;
67721;SDS011;58309;45.292;11.820;2024-03-17T08:59:37;83.63;;;54.60;;
67721;SDS011;58309;45.292;11.820;2024-03-17T09:02:03;80.38;;;51.28;;
67721;SDS011;58309;45.292;11.820;2024-03-17T09:04:29;72.75;;;50.97;;
67721;SDS011;58309;45.292;11.820;2024-03-17T09:06:54;75.00;;;49.05;;
67721;SDS011;58309;45.292;11.820;2024-03-17T09:09:21;70.70;;;47.72;;
67721;SDS011;58309;45.292;11.820;2024-03-17T09:11:50;72.78;;;46.60;;
67721;SDS011;58309;45.292;11.820;2024-03-17T09:14:16;67.13;;;45.28;;
67721;SDS011;58309;45.292;11.820;2024-03-17T09:16:41;64.80;;;43.72;;
67721;SDS011;58309;45.292;11.820;2024-03-17T09:19:07;57.95;;;41.67;;
67721;SDS011;58309;45.292;11.820;2024-03-17T09:21:34;61.60;;;43.03;;
67721;SDS011;58309;45.292;11.820;2024-03-17T09:23:59;60.10;;;42.55;;
67721;SDS011;58309;45.292;11.820;2024-03-17T09:26:25;65.10;;;43.20;;
67721;SDS011;58309;45.292;11.820;2024-03-17T09:28:50;62.85;;;42.88;;
67721;SDS011;58309;45.292;11.820;2024-03-17T09:31:16;60.05;;;42.63;;
67721;SDS011;58309;45.292;11.820;2024-03-17T09:33:41;58.53;;;42.65;;
67721;SDS011;58309;45.292;11.820;2024-03-17T09:36:07;63.83;;;42.42;;
67721;SDS011;58309;45.292;11.820;2024-03-17T09:38:36;66.18;;;43.25;;
67721;SDS011;58309;45.292;11.820;2024-03-17T09:41:02;61.17;;;40.25;;
67721;SDS011;58309;45.292;11.820;2024-03-17T09:43:28;61.00;;;41.00;;
67721;SDS011;58309;45.292;11.820;2024-03-17T09:45:56;58.33;;;39.63;;
67721;SDS011;58309;45.292;11.820;2024-03-17T09:48:23;56.60;;;39.30;;
67721;SDS011;58309;45.292;11.820;2024-03-17T09:50:51;58.20;;;40.03;;
67721;SDS011;58309;45.292;11.820;2024-03-17T09:53:18;58.30;;;40.08;;
67721;SDS011;58309;45.292;11.820;2024-03-17T09:55:50;58.35;;;40.75;;
67721;SDS011;58309;45.292;11.820;2024-03-17T09:58:16;61.95;;;41.28;;
67721;SDS011;58309;45.292;11.820;2024-03-17T10:00:45;57.83;;;40.17;;
67721;SDS011;58309;45.292;11.820;2024-03-17T10:03:11;58.80;;;40.22;;
67721;SDS011;58309;45.292;11.820;2024-03-17T10:05:39;60.70;;;39.88;;
67721;SDS011;58309;45.292;11.820;2024-03-17T10:08:05;57.70;;;40.35;;
67721;SDS011;58309;45.292;11.820;2024-03-17T10:10:31;63.95;;;41.92;;
67721;SDS011;58309;45.292;11.820;2024-03-17T10:12:56;63.20;;;40.53;;
67721;SDS011;58309;45.292;11.820;2024-03-17T10:15:22;59.88;;;40.50;;
67721;SDS011;58309;45.292;11.820;2024-03-17T10:17:48;62.13;;;39.65;;
67721;SDS011;58309;45.292;11.820;2024-03-17T10:22:51;64.15;;;43.55;;
67721;SDS011;58309;45.292;11.820;2024-03-17T10:25:23;62.75;;;41.70;;
67721;SDS011;58309;45.292;11.820;2024-03-17T10:27:49;65.28;;;42.03;;
67721;SDS011;58309;45.292;11.820;2024-03-17T10:30:17;69.28;;;43.33;;
67721;SDS011;58309;45.292;11.820;2024-03-17T10:32:44;70.20;;;44.15;;
67721;SDS011;58309;45.292;11.820;2024-03-17T10:35:25;66.00;;;43.75;;
67721;SDS011;58309;45.292;11.820;2024-03-17T10:38:02;68.05;;;43.80;;
67721;SDS011;58309;45.292;11.820;2024-03-17T10:40:29;72.05;;;44.38;;
67721;SDS011;58309;45.292;11.820;2024-03-17T10:42:56;69.40;;;43.78;;
67721;SDS011;58309;45.292;11.820;2024-03-17T10:45:25;70.53;;;44.25;;
67721;SDS011;58309;45.292;11.820;2024-03-17T10:47:51;69.03;;;43.60;;
67721;SDS011;58309;45.292;11.820;2024-03-17T10:50:21;72.18;;;44.45;;
67721;SDS011;58309;45.292;11.820;2024-03-17T10:52:49;74.00;;;44.47;;
67721;SDS011;58309;45.292;11.820;2024-03-17T10:55:22;76.88;;;44.13;;
67721;SDS011;58309;45.292;11.820;2024-03-17T10:57:50;67.15;;;41.92;;
67721;SDS011;58309;45.292;11.820;2024-03-17T11:00:18;68.00;;;42.22;;
67721;SDS011;58309;45.292;11.820;2024-03-17T11:02:47;71.70;;;41.22;;
67721;SDS011;58309;45.292;11.820;2024-03-17T11:05:19;70.30;;;41.70;;
67721;SDS011;58309;45.292;11.820;2024-03-17T11:07:50;63.28;;;40.33;;
67721;SDS011;58309;45.292;11.820;2024-03-17T11:10:22;62.63;;;40.35;;
67721;SDS011;58309;45.292;11.820;2024-03-17T11:12:50;69.10;;;42.45;;
67721;SDS011;58309;45.292;11.820;2024-03-17T11:17:47;70.28;;;42.30;;
67721;SDS011;58309;45.292;11.820;2024-03-17T11:20:31;73.40;;;42.83;;
67721;SDS011;58309;45.292;11.820;2024-03-17T11:22:57;69.13;;;41.67;;
67721;SDS011;58309;45.292;11.820;2024-03-17T11:28:09;62.03;;;39.03;;
67721;SDS011;58309;45.292;11.820;2024-03-17T11:46:54;49.80;;;33.13;;
67721;SDS011;58309;45.292;11.820;2024-03-17T11:49:31;49.63;;;33.97;;
67721;SDS011;58309;45.292;11.820;2024-03-17T11:51:59;49.47;;;32.30;;
67721;SDS011;58309;45.292;11.820;2024-03-17T11:54:29;44.75;;;30.85;;
67721;SDS011;58309;45.292;11.820;2024-03-17T11:57:00;43.55;;;29.65;;
67721;SDS011;58309;45.292;11.820;2024-03-17T11:59:26;45.78;;;31.55;;
67721;SDS011;58309;45.292;11.820;2024-03-17T12:01:52;44.38;;;31.27;;
67721;SDS011;58309;45.292;11.820;2024-03-17T12:04:18;49.15;;;33.67;;
67721;SDS011;58309;45.292;11.820;2024-03-17T12:06:46;48.78;;;32.33;;
67721;SDS011;58309;45.292;11.820;2024-03-17T12:12:04;50.15;;;32.08;;
67721;SDS011;58309;45.292;11.820;2024-03-17T12:14:35;52.35;;;31.38;;
67721;SDS011;58309;45.292;11.820;2024-03-17T12:17:06;46.58;;;31.33;;
67721;SDS011;58309;45.292;11.820;2024-03-17T12:19:33;48.65;;;31.08;;
67721;SDS011;58309;45.292;11.820;2024-03-17T12:21:59;46.83;;;31.15;;
67721;SDS011;58309;45.292;11.820;2024-03-17T12:24:30;51.53;;;33.22;;
67721;SDS011;58309;45.292;11.820;2024-03-17T12:26:57;48.53;;;32.78;;
67721;SDS011;58309;45.292;11.820;2024-03-17T12:29:34;46.63;;;30.80;;
67721;SDS011;58309;45.292;11.820;2024-03-17T12:32:04;47.50;;;31.73;;
67721;SDS011;58309;45.292;11.820;2024-03-17T12:34:31;47.65;;;31.13;;
67721;SDS011;58309;45.292;11.820;2024-03-17T12:36:59;46.10;;;30.33;;
67721;SDS011;58309;45.292;11.820;2024-03-17T12:39:26;48.17;;;32.40;;
67721;SDS011;58309;45.292;11.820;2024-03-17T12:44:32;45.80;;;31.40;;
67721;SDS011;58309;45.292;11.820;2024-03-17T12:46:59;45.15;;;30.05;;
67721;SDS011;58309;45.292;11.820;2024-03-17T12:49:29;44.58;;;30.77;;
67721;SDS011;58309;45.292;11.820;2024-03-17T12:51:55;43.88;;;30.00;;
67721;SDS011;58309;45.292;11.820;2024-03-17T12:54:22;42.03;;;28.50;;
67721;SDS011;58309;45.292;11.820;2024-03-17T12:56:49;36.90;;;27.27;;
67721;SDS011;58309;45.292;11.820;2024-03-17T12:59:38;42.65;;;28.95;;
67721;SDS011;58309;45.292;11.820;2024-03-17T13:02:22;38.20;;;27.33;;
67721;SDS011;58309;45.292;11.820;2024-03-17T13:07:46;36.42;;;26.25;;
67721;SDS011;58309;45.292;11.820;2024-03-17T13:10:15;37.75;;;27.20;;
67721;SDS011;58309;45.292;11.820;2024-03-17T13:12:44;36.60;;;26.48;;
67721;SDS011;58309;45.292;11.820;2024-03-17T13:15:15;35.72;;;25.60;;
67721;SDS011;58309;45.292;11.820;2024-03-17T13:17:42;40.20;;;27.08;;
67721;SDS011;58309;45.292;11.820;2024-03-17T13:20:14;35.45;;;24.33;;
67721;SDS011;58309;45.292;11.820;2024-03-17T13:22:44;33.15;;;24.33;;
67721;SDS011;58309;45.292;11.820;2024-03-17T13:25:20;36.65;;;25.58;;
67721;SDS011;58309;45.292;11.820;2024-03-17T13:27:48;38.95;;;25.83;;
67721;SDS011;58309;45.292;11.820;2024-03-17T13:30:15;36.88;;;25.45;;
67721;SDS011;58309;45.292;11.820;2024-03-17T13:32:42;37.20;;;24.90;;
67721;SDS011;58309;45.292;11.820;2024-03-17T13:35:15;33.60;;;23.58;;
67721;SDS011;58309;45.292;11.820;2024-03-17T13:37:44;29.02;;;22.77;;
67721;SDS011;58309;45.292;11.820;2024-03-17T13:40:11;33.30;;;22.60;;
67721;SDS011;58309;45.292;11.820;2024-03-17T13:42:40;31.30;;;22.33;;
67721;SDS011;58309;45.292;11.820;2024-03-17T13:45:07;29.73;;;21.60;;
67721;SDS011;58309;45.292;11.820;2024-03-17T13:47:36;29.75;;;21.52;;
67721;SDS011;58309;45.292;11.820;2024-03-17T13:50:01;31.92;;;22.50;;
67721;SDS011;58309;45.292;11.820;2024-03-17T13:52:31;35.05;;;22.63;;
67721;SDS011;58309;45.292;11.820;2024-03-17T13:54:57;33.22;;;21.45;;
67721;SDS011;58309;45.292;11.820;2024-03-17T13:57:24;31.13;;;21.02;;
67721;SDS011;58309;45.292;11.820;2024-03-17T13:59:50;31.13;;;20.80;;
67721;SDS011;58309;45.292;11.820;2024-03-17T14:02:17;27.73;;;19.65;;
67721;SDS011;58309;45.292;11.820;2024-03-17T14:04:43;28.83;;;19.95;;
67721;SDS011;58309;45.292;11.820;2024-03-17T14:07:09;28.40;;;19.35;;
67721;SDS011;58309;45.292;11.820;2024-03-17T14:09:34;27.63;;;20.02;;
67721;SDS011;58309;45.292;11.820;2024-03-17T14:12:00;28.02;;;19.98;;
67721;SDS011;58309;45.292;11.820;2024-03-17T14:14:25;29.65;;;19.90;;
67721;SDS011;58309;45.292;11.820;2024-03-17T14:16:51;26.42;;;19.52;;
67721;SDS011;58309;45.292;11.820;2024-03-17T14:19:16;27.73;;;20.17;;
67721;SDS011;58309;45.292;11.820;2024-03-17T14:21:42;30.67;;;20.48;;
67721;SDS011;58309;45.292;11.820;2024-03-17T14:24:07;27.17;;;20.05;;
67721;SDS011;58309;45.292;11.820;2024-03-17T14:26:34;29.33;;;20.92;;
67721;SDS011;58309;45.292;11.820;2024-03-17T14:29:02;29.88;;;21.52;;
67721;SDS011;58309;45.292;11.820;2024-03-17T14:31:34;31.23;;;20.52;;
67721;SDS011;58309;45.292;11.820;2024-03-17T14:34:04;28.63;;;20.70;;